createdAt,value
2018-04-16T00:01:53.158Z,13.80
2018-04-16T00:04:20.620Z,13.60
2018-04-16T00:06:48.856Z,13.90
2018-04-16T00:09:16.313Z,13.90
2018-04-16T00:11:43.815Z,14.00
2018-04-16T00:14:12.055Z,13.80
2018-04-16T00:16:39.547Z,13.80
2018-04-16T00:19:07.768Z,13.40
2018-04-16T00:21:35.275Z,13.40
2018-04-16T00:24:03.515Z,13.40
2018-04-16T00:26:31.005Z,13.40
2018-04-16T00:28:59.224Z,13.40
2018-04-16T00:31:32.313Z,13.40
2018-04-16T00:34:14.677Z,13.30
2018-04-16T00:36:48.972Z,13.10
2018-04-16T00:39:23.012Z,13.10
2018-04-16T00:41:56.965Z,13.00
2018-04-16T00:44:30.167Z,13.00
2018-04-16T00:47:03.388Z,13.00
2018-04-16T00:49:36.600Z,13.00
2018-04-16T00:52:09.867Z,13.00
2018-04-16T00:54:43.777Z,13.20
2018-04-16T00:57:16.939Z,13.10
2018-04-16T00:59:50.208Z,13.20
2018-04-16T01:02:23.509Z,13.20
2018-04-16T01:04:56.640Z,13.10
2018-04-16T01:07:29.895Z,13.00
2018-04-16T01:10:03.158Z,12.90
2018-04-16T01:12:39.951Z,12.80
2018-04-16T01:15:13.060Z,12.80
2018-04-16T01:17:57.391Z,12.70
2018-04-16T01:20:30.487Z,12.60
2018-04-16T01:23:18.799Z,12.60
2018-04-16T01:25:53.176Z,12.50
2018-04-16T01:28:26.508Z,12.50
2018-04-16T01:31:00.559Z,12.50
2018-04-16T01:33:33.783Z,12.50
2018-04-16T01:36:06.874Z,12.60
2018-04-16T01:38:41.598Z,12.70
2018-04-16T01:41:14.777Z,12.70
2018-04-16T01:43:48.039Z,12.80
2018-04-16T01:46:21.808Z,12.90
2018-04-16T01:48:55.695Z,13.00
2018-04-16T01:51:28.935Z,13.00
2018-04-16T01:54:02.185Z,13.10
2018-04-16T01:56:35.531Z,13.10
2018-04-16T01:59:08.607Z,13.00
2018-04-16T02:01:41.859Z,13.00
2018-04-16T02:04:15.044Z,13.00
2018-04-16T02:06:48.287Z,13.00
2018-04-16T02:09:21.552Z,12.90
2018-04-16T02:11:55.565Z,12.70
2018-04-16T02:14:29.647Z,12.70
2018-04-16T02:17:02.843Z,12.70
2018-04-16T02:19:49.453Z,12.70
2018-04-16T02:22:22.535Z,12.90
2018-04-16T02:24:55.805Z,12.90
2018-04-16T02:27:29.030Z,12.90
2018-04-16T02:30:03.780Z,12.90
2018-04-16T02:32:37.860Z,13.00
2018-04-16T02:35:11.079Z,13.00
2018-04-16T02:37:44.947Z,12.80
2018-04-16T02:40:18.223Z,12.90
2018-04-16T02:42:51.470Z,12.80
2018-04-16T02:45:25.319Z,12.50
2018-04-16T02:47:58.635Z,12.50
2018-04-16T02:50:31.879Z,12.50
2018-04-16T02:53:05.364Z,12.40
2018-04-16T02:55:53.392Z,12.50
2018-04-16T02:58:26.637Z,12.50
2018-04-16T03:00:59.828Z,12.50
2018-04-16T03:03:33.060Z,12.60
2018-04-16T03:06:07.855Z,12.80
2018-04-16T03:08:56.444Z,12.80
2018-04-16T03:11:29.564Z,12.80
2018-04-16T03:14:03.548Z,12.80
2018-04-16T03:16:36.733Z,12.80
2018-04-16T03:19:11.496Z,12.80
2018-04-16T03:21:44.727Z,12.80
2018-04-16T03:24:18.067Z,12.80
2018-04-16T03:26:52.044Z,12.80
2018-04-16T03:29:25.286Z,12.80
2018-04-16T03:31:58.467Z,12.80
2018-04-16T03:34:41.592Z,12.90
2018-04-16T03:37:15.511Z,12.90
2018-04-16T03:39:48.611Z,12.80
2018-04-16T03:42:21.996Z,12.80
2018-04-16T03:44:55.075Z,12.70
2018-04-16T03:47:28.272Z,12.70
2018-04-16T03:50:01.615Z,12.70
2018-04-16T03:52:34.881Z,12.70
2018-04-16T03:55:08.096Z,12.70
2018-04-16T03:57:35.555Z,12.70
2018-04-16T04:00:03.043Z,12.80
2018-04-16T04:02:31.291Z,12.80
2018-04-16T04:04:58.833Z,12.80
2018-04-16T04:07:26.308Z,13.00
2018-04-16T04:09:53.796Z,13.00
2018-04-16T04:12:22.065Z,13.10
2018-04-16T04:14:49.622Z,13.00
2018-04-16T04:17:17.086Z,13.10
2018-04-16T04:19:45.324Z,13.20
2018-04-16T04:22:12.784Z,13.10
2018-04-16T04:24:52.200Z,13.20
2018-04-16T04:27:31.501Z,13.20
2018-04-16T04:30:11.911Z,13.10
2018-04-16T04:32:39.409Z,13.20
2018-04-16T04:35:07.674Z,13.20
2018-04-16T04:37:36.936Z,13.10
2018-04-16T04:40:04.403Z,13.00
2018-04-16T04:42:31.886Z,13.10
2018-04-16T04:45:00.180Z,13.00
2018-04-16T04:47:28.659Z,13.00
2018-04-16T04:49:56.914Z,13.10
2018-04-16T04:52:25.156Z,13.10
2018-04-16T04:54:52.629Z,13.10
2018-04-16T04:57:20.111Z,13.20
2018-04-16T04:59:48.354Z,13.30
2018-04-16T05:02:15.828Z,13.30
2018-04-16T05:04:44.801Z,13.50
2018-04-16T05:07:12.282Z,13.50
2018-04-16T05:09:39.906Z,13.20
2018-04-16T05:12:07.371Z,13.10
2018-04-16T05:14:34.852Z,13.20
2018-04-16T05:17:02.340Z,13.30
2018-04-16T05:19:30.586Z,13.50
2018-04-16T05:21:58.828Z,13.20
2018-04-16T05:24:26.305Z,13.20
2018-04-16T05:26:53.777Z,13.00
2018-04-16T05:29:22.016Z,12.80
2018-04-16T05:31:49.476Z,12.80
2018-04-16T05:34:16.956Z,12.70
2018-04-16T05:36:44.422Z,12.60
2018-04-16T05:39:12.088Z,12.60
2018-04-16T05:41:40.319Z,12.60
2018-04-16T05:44:07.801Z,12.60
2018-04-16T05:46:35.272Z,12.60
2018-04-16T05:49:02.751Z,12.60
2018-04-16T05:51:30.994Z,12.70
2018-04-16T05:53:58.504Z,12.60
2018-04-16T05:56:26.147Z,12.80
2018-04-16T05:58:54.421Z,13.20
2018-04-16T06:01:22.045Z,13.20
2018-04-16T06:03:49.510Z,13.40
2018-04-16T06:06:17.468Z,13.50
2018-04-16T06:08:44.999Z,13.50
2018-04-16T06:11:12.543Z,13.60
2018-04-16T06:13:40.766Z,13.40
2018-04-16T06:16:08.323Z,13.30
2018-04-16T06:18:35.785Z,13.20
2018-04-16T06:21:03.285Z,13.20
2018-04-16T06:23:31.508Z,13.30
2018-04-16T06:25:59.104Z,13.30
2018-04-16T06:28:26.619Z,13.40
2018-04-16T06:30:54.116Z,13.30
2018-04-16T06:33:21.588Z,13.40
2018-04-16T06:35:50.073Z,13.60
2018-04-16T06:38:18.322Z,13.70
2018-04-16T06:40:46.613Z,13.80
2018-04-16T06:43:15.708Z,13.90
2018-04-16T06:45:44.056Z,13.90
2018-04-16T06:48:11.520Z,13.90
2018-04-16T06:50:39.022Z,13.90
2018-04-16T06:53:06.675Z,13.90
2018-04-16T06:55:34.223Z,13.90
2018-04-16T06:58:02.462Z,14.00
2018-04-16T07:00:30.169Z,14.00
2018-04-16T07:02:58.482Z,14.30
2018-04-16T07:05:25.965Z,14.30
2018-04-16T07:07:53.441Z,14.40
2018-04-16T07:10:21.807Z,14.60
2018-04-16T07:12:49.281Z,14.60
2018-04-16T07:15:17.755Z,14.80
2018-04-16T07:17:46.282Z,14.70
2018-04-16T07:20:13.765Z,14.80
2018-04-16T07:22:41.254Z,14.80
2018-04-16T07:25:08.717Z,14.80
2018-04-16T07:27:37.011Z,15.10
2018-04-16T07:30:04.489Z,15.10
2018-04-16T07:32:31.986Z,15.30
2018-04-16T07:34:59.460Z,15.40
2018-04-16T07:37:27.770Z,15.50
2018-04-16T07:39:55.187Z,15.50
2018-04-16T07:42:22.681Z,15.60
2018-04-16T07:44:50.173Z,15.60
2018-04-16T07:47:17.655Z,15.60
2018-04-16T07:49:45.141Z,15.70
2018-04-16T07:52:13.386Z,15.80
2018-04-16T07:54:42.392Z,15.80
2018-04-16T07:57:09.865Z,15.80
2018-04-16T07:59:38.117Z,15.80
2018-04-16T08:02:06.380Z,15.70
2018-04-16T08:04:33.851Z,15.50
2018-04-16T08:07:02.121Z,15.60
2018-04-16T08:09:29.580Z,15.60
2018-04-16T08:11:57.061Z,15.70
2018-04-16T08:14:25.318Z,15.80
2018-04-16T08:16:52.784Z,15.80
2018-04-16T08:19:21.131Z,16.10
2018-04-16T08:21:48.561Z,16.00
2018-04-16T08:24:16.073Z,16.00
2018-04-16T08:26:44.331Z,15.90
2018-04-16T08:29:11.953Z,15.90
2018-04-16T08:31:39.424Z,16.10
2018-04-16T08:34:06.904Z,16.10
2018-04-16T08:36:34.407Z,16.10
2018-04-16T08:39:01.965Z,16.30
2018-04-16T08:41:29.461Z,16.40
2018-04-16T08:43:56.922Z,16.50
2018-04-16T08:46:24.465Z,16.70
2018-04-16T08:48:51.937Z,17.00
2018-04-16T08:51:19.417Z,17.20
2018-04-16T08:53:48.388Z,17.20
2018-04-16T08:56:15.988Z,17.20
2018-04-16T08:58:44.230Z,16.90
2018-04-16T09:01:12.332Z,16.80
2018-04-16T09:03:40.677Z,16.70
2018-04-16T09:06:08.181Z,16.60
2018-04-16T09:08:37.128Z,16.80
2018-04-16T09:11:04.591Z,16.80
2018-04-16T09:13:32.084Z,16.70
2018-04-16T09:18:34.291Z,16.80
2018-04-16T09:21:01.796Z,16.70
2018-04-16T09:23:29.263Z,16.60
2018-04-16T09:25:56.761Z,16.60
2018-04-16T09:28:24.267Z,16.50
2018-04-16T09:30:53.269Z,16.30
2018-04-16T09:33:20.736Z,16.30
2018-04-16T09:35:49.987Z,16.40
2018-04-16T09:38:17.467Z,16.40
2018-04-16T09:40:46.469Z,16.40
2018-04-16T09:43:13.937Z,16.40
2018-04-16T09:45:42.404Z,16.60
2018-04-16T09:48:09.916Z,16.60
2018-04-16T09:50:37.589Z,16.70
2018-04-16T09:53:05.184Z,16.60
2018-04-16T09:55:32.680Z,16.60
2018-04-16T09:58:00.288Z,16.60
2018-04-16T10:00:27.833Z,16.50
2018-04-16T10:02:58.162Z,16.40
2018-04-16T10:05:25.635Z,16.50
2018-04-16T10:07:53.124Z,16.60
2018-04-16T10:10:21.358Z,17.00
2018-04-16T10:12:48.840Z,16.90
2018-04-16T10:15:16.299Z,17.10
2018-04-16T10:17:43.888Z,17.30
2018-04-16T10:20:11.352Z,17.30
2018-04-16T10:22:38.832Z,17.30
2018-04-16T10:25:06.307Z,17.20
2018-04-16T10:27:33.792Z,17.50
2018-04-16T10:30:02.024Z,17.80
2018-04-16T10:32:29.518Z,17.80
2018-04-16T10:34:57.344Z,17.90
2018-04-16T10:37:24.824Z,18.10
2018-04-16T10:39:52.315Z,18.10
2018-04-16T10:42:20.556Z,18.10
2018-04-16T10:44:48.046Z,18.10
2018-04-16T10:47:16.292Z,18.00
2018-04-16T10:49:43.792Z,18.00
2018-04-16T10:52:12.150Z,18.10
2018-04-16T10:54:40.435Z,18.30
2018-04-16T10:57:08.670Z,18.40
2018-04-16T10:59:36.147Z,18.40
2018-04-16T11:02:03.621Z,18.20
2018-04-16T11:04:32.051Z,18.20
2018-04-16T11:06:59.609Z,18.10
2018-04-16T11:09:27.077Z,18.50
2018-04-16T11:11:54.752Z,18.90
2018-04-16T11:14:22.415Z,19.00
2018-04-16T11:16:50.653Z,18.50
2018-04-16T11:19:18.149Z,18.50
2018-04-16T11:21:45.671Z,18.70
2018-04-16T11:24:13.150Z,18.70
2018-04-16T11:26:40.622Z,18.40
2018-04-16T11:29:08.189Z,18.40
2018-04-16T11:31:35.665Z,18.50
2018-04-16T11:34:03.930Z,18.70
2018-04-16T11:36:32.231Z,18.60
2018-04-16T11:38:59.699Z,18.50
2018-04-16T11:41:27.175Z,18.80
2018-04-16T11:43:54.641Z,18.70
2018-04-16T11:46:22.576Z,18.40
2018-04-16T11:48:50.044Z,18.40
2018-04-16T11:51:17.526Z,18.50
2018-04-16T11:53:45.128Z,18.70
2018-04-16T11:56:13.387Z,19.30
2018-04-16T11:58:40.915Z,19.30
2018-04-16T12:01:08.466Z,19.70
2018-04-16T12:03:35.923Z,20.30
2018-04-16T12:06:03.399Z,21.10
2018-04-16T12:08:30.862Z,21.70
2018-04-16T12:10:59.102Z,20.00
2018-04-16T12:13:26.587Z,20.00
2018-04-16T12:15:54.140Z,19.70
2018-04-16T12:18:21.652Z,20.10
2018-04-16T12:20:49.885Z,21.90
2018-04-16T12:23:17.355Z,21.90
2018-04-16T12:25:44.821Z,22.40
2018-04-16T12:28:14.124Z,22.50
2018-04-16T12:30:42.369Z,21.70
2018-04-16T12:33:09.912Z,21.70
2018-04-16T12:35:38.095Z,21.20
2018-04-16T12:38:05.596Z,21.20
2018-04-16T12:40:34.041Z,20.40
2018-04-16T12:43:01.681Z,20.40
2018-04-16T12:45:29.148Z,20.30
2018-04-16T12:47:57.237Z,20.10
2018-04-16T12:50:24.697Z,20.00
2018-04-16T12:52:52.180Z,19.80
2018-04-16T12:55:20.475Z,19.30
2018-04-16T12:57:48.181Z,19.30
2018-04-16T13:00:15.657Z,19.50
2018-04-16T13:02:43.297Z,19.90
2018-04-16T13:05:10.868Z,20.20
2018-04-16T13:07:39.390Z,20.20
2018-04-16T13:10:06.866Z,20.60
2018-04-16T13:12:34.336Z,20.70
2018-04-16T13:15:01.853Z,21.00
2018-04-16T13:17:30.097Z,21.20
2018-04-16T13:19:57.618Z,21.20
2018-04-16T13:22:25.075Z,21.10
2018-04-16T13:24:52.581Z,21.10
2018-04-16T13:27:20.072Z,21.00
2018-04-16T13:29:47.562Z,20.70
2018-04-16T13:32:15.875Z,20.20
2018-04-16T13:34:43.366Z,19.80
2018-04-16T13:37:10.833Z,19.60
2018-04-16T13:39:38.303Z,19.30
2018-04-16T13:42:05.967Z,19.20
2018-04-16T13:44:33.507Z,19.20
2018-04-16T13:47:00.992Z,19.20
2018-04-16T13:49:28.771Z,19.10
2018-04-16T13:51:56.368Z,19.00
2018-04-16T13:54:24.234Z,19.20
2018-04-16T13:56:51.932Z,19.00
2018-04-16T13:59:19.424Z,18.90
2018-04-16T14:01:47.775Z,18.90
2018-04-16T14:04:15.275Z,18.90
2018-04-16T14:06:42.831Z,19.00
2018-04-16T14:09:11.230Z,19.30
2018-04-16T14:11:39.495Z,19.40
2018-04-16T14:14:07.102Z,19.30
2018-04-16T14:16:34.615Z,19.50
2018-04-16T14:19:02.175Z,19.80
2018-04-16T14:21:30.912Z,20.10
2018-04-16T14:23:58.485Z,20.10
2018-04-16T14:26:27.483Z,20.10
2018-04-16T14:28:56.487Z,20.30
2018-04-16T14:31:24.177Z,20.30
2018-04-16T14:33:51.739Z,20.40
2018-04-16T14:36:19.239Z,20.30
2018-04-16T14:38:46.955Z,20.20
2018-04-16T14:41:15.345Z,20.30
2018-04-16T14:43:43.831Z,20.50
2018-04-16T14:46:11.503Z,20.50
2018-04-16T14:48:39.268Z,20.80
2018-04-16T14:51:07.633Z,21.10
2018-04-16T14:53:35.304Z,21.00
2018-04-16T14:56:02.819Z,21.20
2018-04-16T14:58:30.353Z,21.40
2018-04-16T15:00:57.836Z,21.40
2018-04-16T15:03:25.439Z,21.40
2018-04-16T15:05:52.900Z,21.30
2018-04-16T15:08:20.560Z,21.10
2018-04-16T15:10:48.027Z,20.80
2018-04-16T15:13:15.696Z,20.80
2018-04-16T15:15:43.212Z,20.90
2018-04-16T15:18:10.789Z,20.90
2018-04-16T15:20:38.417Z,20.90
2018-04-16T15:23:06.840Z,20.70
2018-04-16T15:25:34.503Z,20.70
2018-04-16T15:28:01.999Z,20.80
2018-04-16T15:30:29.485Z,20.80
2018-04-16T15:32:58.343Z,20.60
2018-04-16T15:35:26.580Z,20.40
2018-04-16T15:37:54.117Z,20.40
2018-04-16T15:40:21.594Z,20.20
2018-04-16T15:42:49.902Z,20.30
2018-04-16T15:45:17.400Z,20.30
2018-04-16T15:47:45.672Z,20.30
2018-04-16T15:50:13.925Z,20.30
2018-04-16T15:52:41.384Z,20.30
2018-04-16T15:55:08.861Z,20.30
2018-04-16T15:57:37.604Z,19.90
2018-04-16T16:00:05.125Z,19.90
2018-04-16T16:02:32.621Z,19.80
2018-04-16T16:05:00.083Z,19.80
2018-04-16T16:07:27.563Z,19.70
2018-04-16T16:09:55.928Z,19.80
2018-04-16T16:12:23.480Z,19.80
2018-04-16T16:14:50.983Z,19.90
2018-04-16T16:17:18.588Z,19.90
2018-04-16T16:19:46.200Z,19.80
2018-04-16T16:22:13.852Z,19.70
2018-04-16T16:24:42.080Z,19.60
2018-04-16T16:27:09.743Z,19.60
2018-04-16T16:29:37.228Z,19.60
2018-04-16T16:32:04.734Z,19.50
2018-04-16T16:34:32.215Z,19.30
2018-04-16T16:36:59.740Z,19.30
2018-04-16T16:39:27.207Z,19.50
2018-04-16T16:41:54.707Z,19.50
2018-04-16T16:44:22.177Z,19.50
2018-04-16T16:46:49.649Z,19.50
2018-04-16T16:49:17.884Z,19.20
2018-04-16T16:51:45.481Z,19.20
2018-04-16T16:54:13.736Z,19.20
2018-04-16T16:56:41.312Z,19.20
2018-04-16T16:59:09.603Z,19.10
2018-04-16T17:01:37.240Z,19.00
2018-04-16T17:04:05.488Z,18.90
2018-04-16T17:06:33.900Z,18.80
2018-04-16T17:09:01.371Z,18.80
2018-04-16T17:11:28.993Z,18.70
2018-04-16T17:13:56.472Z,18.80
2018-04-16T17:16:24.732Z,18.70
2018-04-16T17:18:52.389Z,18.70
2018-04-16T17:21:20.636Z,18.70
2018-04-16T17:23:48.143Z,18.70
2018-04-16T17:26:16.384Z,18.60
2018-04-16T17:28:43.876Z,18.60
2018-04-16T17:31:11.343Z,18.50
2018-04-16T17:33:39.808Z,18.30
2018-04-16T17:36:07.344Z,18.30
2018-04-16T17:38:35.027Z,18.20
2018-04-16T17:41:02.569Z,18.20
2018-04-16T17:43:30.080Z,18.10
2018-04-16T17:45:58.330Z,17.90
2018-04-16T17:48:26.589Z,17.80
2018-04-16T17:50:54.677Z,17.80
2018-04-16T17:53:22.909Z,17.80
2018-04-16T17:55:51.627Z,17.70
2018-04-16T17:58:20.451Z,17.70
2018-04-16T18:00:49.515Z,17.70
2018-04-16T18:03:17.255Z,17.70
2018-04-16T18:05:45.123Z,17.60
2018-04-16T18:08:14.699Z,17.40
2018-04-16T18:10:43.125Z,17.40
2018-04-16T18:13:11.373Z,17.40
2018-04-16T18:15:40.968Z,17.20
2018-04-16T18:18:08.792Z,17.20
2018-04-16T18:20:36.353Z,17.20
2018-04-16T18:23:04.028Z,17.10
2018-04-16T18:25:31.547Z,17.00
2018-04-16T18:28:00.582Z,16.90
2018-04-16T18:30:28.137Z,16.90
2018-04-16T18:32:55.803Z,16.90
2018-04-16T18:35:23.472Z,16.90
2018-04-16T18:37:51.059Z,16.80
2018-04-16T18:40:18.580Z,16.80
2018-04-16T18:42:46.109Z,16.70
2018-04-16T18:45:13.624Z,16.70
2018-04-16T18:47:41.157Z,16.70
2018-04-16T18:50:08.741Z,16.70
2018-04-16T18:52:36.238Z,16.60
2018-04-16T18:55:04.270Z,16.60
2018-04-16T18:57:32.021Z,16.50
2018-04-16T18:59:59.548Z,16.40
2018-04-16T19:02:28.067Z,16.30
2018-04-16T19:04:56.132Z,16.30
2018-04-16T19:07:23.669Z,16.40
2018-04-16T19:09:52.494Z,16.30
2018-04-16T19:12:20.034Z,16.30
2018-04-16T19:14:48.679Z,16.30
2018-04-16T19:17:16.167Z,16.30
2018-04-16T19:19:43.649Z,16.20
2018-04-16T19:22:11.128Z,16.20
2018-04-16T19:24:38.604Z,16.10
2018-04-16T19:27:11.825Z,16.00
2018-04-16T19:29:40.076Z,15.90
2018-04-16T19:32:07.639Z,15.90
2018-04-16T19:34:41.483Z,15.90
2018-04-16T19:37:08.952Z,15.80
2018-04-16T19:39:36.540Z,15.80
2018-04-16T19:42:09.663Z,15.80
2018-04-16T19:44:37.911Z,15.70
2018-04-16T19:47:05.384Z,15.70
2018-04-16T19:49:39.364Z,15.60
2018-04-16T19:52:06.948Z,15.60
2018-04-16T19:54:34.408Z,15.60
2018-04-16T19:57:08.430Z,15.50
2018-04-16T19:59:36.657Z,15.40
2018-04-16T20:02:09.992Z,15.40
2018-04-16T20:04:38.228Z,15.40
2018-04-16T20:07:06.544Z,15.40
2018-04-16T20:09:34.784Z,15.20
2018-04-16T20:12:02.365Z,15.20
2018-04-16T20:14:30.612Z,15.20
2018-04-16T20:16:58.084Z,15.20
2018-04-16T20:19:25.558Z,15.20
2018-04-16T20:21:53.040Z,15.20
2018-04-16T20:24:20.537Z,15.20
2018-04-16T20:26:48.024Z,15.10
2018-04-16T20:29:15.511Z,15.00
2018-04-16T20:31:43.752Z,14.90
2018-04-16T20:34:11.277Z,15.00
2018-04-16T20:36:38.896Z,14.90
2018-04-16T20:39:06.366Z,14.90
2018-04-16T20:41:33.871Z,14.90
2018-04-16T20:44:01.373Z,15.00
2018-04-16T20:46:29.628Z,14.90
2018-04-16T20:48:57.105Z,14.90
2018-04-16T20:51:25.361Z,14.80
2018-04-16T20:53:52.880Z,14.80
2018-04-16T20:56:20.335Z,14.70
2018-04-16T20:58:47.816Z,14.60
2018-04-16T21:01:15.289Z,14.60
2018-04-16T21:03:42.765Z,14.50
2018-04-16T21:06:11.028Z,14.50
2018-04-16T21:08:38.624Z,14.50
2018-04-16T21:11:06.923Z,14.50
2018-04-16T21:13:34.397Z,14.50
2018-04-16T21:16:02.394Z,14.50
2018-04-16T21:18:30.845Z,14.40
2018-04-16T21:20:58.354Z,14.40
2018-04-16T21:23:25.847Z,14.40
2018-04-16T21:25:53.349Z,14.40
2018-04-16T21:28:21.726Z,14.10
2018-04-16T21:30:50.090Z,14.10
2018-04-16T21:33:19.094Z,14.20
2018-04-16T21:35:48.001Z,14.30
2018-04-16T21:38:16.251Z,14.20
2018-04-16T21:40:44.636Z,14.20
2018-04-16T21:43:12.241Z,14.30
2018-04-16T21:45:39.875Z,14.20
2018-04-16T21:48:08.226Z,14.10
2018-04-16T21:50:35.790Z,14.10
2018-04-16T21:53:04.018Z,14.10
2018-04-16T21:55:31.521Z,14.10
2018-04-16T21:57:58.983Z,14.10
2018-04-16T22:00:26.468Z,14.10
2018-04-16T22:02:53.937Z,14.10
2018-04-16T22:05:21.436Z,14.00
2018-04-16T22:07:48.908Z,14.00
2018-04-16T22:10:16.396Z,13.90
2018-04-16T22:12:43.888Z,13.90
2018-04-16T22:15:11.381Z,13.90
2018-04-16T22:17:38.848Z,13.90
2018-04-16T22:20:07.130Z,13.80
2018-04-16T22:22:35.476Z,13.80
2018-04-16T22:25:02.972Z,13.80
2018-04-16T22:27:31.233Z,13.70
2018-04-16T22:29:58.696Z,13.70
2018-04-16T22:32:26.951Z,13.60
2018-04-16T22:34:54.410Z,13.60
2018-04-16T22:37:21.952Z,13.60
2018-04-16T22:39:49.552Z,13.60
2018-04-16T22:42:17.809Z,13.50
2018-04-16T22:44:46.783Z,13.50
2018-04-16T22:47:14.285Z,13.50
2018-04-16T22:49:41.920Z,13.50
2018-04-16T22:52:10.974Z,13.50
2018-04-16T22:54:38.451Z,13.50
2018-04-16T22:57:05.912Z,13.40
2018-04-16T22:59:34.151Z,13.30
2018-04-16T23:02:01.753Z,13.30
2018-04-16T23:04:30.729Z,13.20
2018-04-16T23:06:58.189Z,13.30
2018-04-16T23:09:26.226Z,13.30
2018-04-16T23:11:53.688Z,13.30
2018-04-16T23:14:22.186Z,13.30
2018-04-16T23:16:49.657Z,13.30
2018-04-16T23:19:17.188Z,13.30
2018-04-16T23:21:44.686Z,13.20
2018-04-16T23:24:12.937Z,13.20
2018-04-16T23:26:40.403Z,13.20
2018-04-16T23:29:07.859Z,13.20
2018-04-16T23:31:35.348Z,13.30
2018-04-16T23:34:03.581Z,13.10
2018-04-16T23:36:31.177Z,13.10
2018-04-16T23:38:58.642Z,13.10
2018-04-16T23:41:26.888Z,13.10
2018-04-16T23:43:55.240Z,13.10
2018-04-16T23:46:22.775Z,13.10
2018-04-16T23:48:51.096Z,13.10
2018-04-16T23:51:18.655Z,13.00
2018-04-16T23:53:46.171Z,13.10
2018-04-16T23:56:13.724Z,13.00
2018-04-16T23:58:42.036Z,12.90
